createdAt,value
2023-05-19T00:01:19.587Z,7.85
2023-05-19T00:04:02.972Z,7.72
2023-05-19T00:09:03.805Z,7.63
2023-05-19T00:11:31.003Z,6.57
2023-05-19T00:13:59.814Z,7.80
2023-05-19T00:16:27.890Z,7.40
2023-05-19T00:18:54.754Z,7.97
2023-05-19T00:21:21.575Z,6.85
2023-05-19T00:23:48.229Z,7.78
2023-05-19T00:26:15.096Z,5.72
2023-05-19T00:28:41.731Z,8.10
2023-05-19T00:31:08.408Z,7.30
2023-05-19T00:33:35.174Z,8.45
2023-05-19T00:36:03.723Z,6.97
2023-05-19T00:38:31.730Z,6.72
2023-05-19T00:40:59.219Z,6.68
2023-05-19T00:43:26.230Z,6.25
2023-05-19T00:45:52.934Z,4.55
2023-05-19T00:48:19.648Z,4.53
2023-05-19T00:50:46.679Z,6.25
2023-05-19T00:53:14.889Z,6.32
2023-05-19T00:55:42.793Z,6.35
2023-05-19T00:58:11.849Z,5.00
2023-05-19T01:00:39.804Z,6.85
2023-05-19T01:03:13.341Z,6.10
2023-05-19T01:05:53.709Z,6.43
2023-05-19T01:08:20.681Z,6.95
2023-05-19T01:10:47.449Z,5.93
2023-05-19T01:13:14.493Z,8.25
2023-05-19T01:16:00.258Z,8.05
2023-05-19T01:18:34.619Z,8.88
2023-05-19T01:21:44.459Z,8.98
2023-05-19T01:24:37.208Z,8.25
2023-05-19T01:27:06.621Z,8.73
2023-05-19T01:29:45.328Z,9.88
2023-05-19T01:32:13.928Z,9.02
2023-05-19T01:34:44.330Z,8.65
2023-05-19T01:37:14.438Z,8.68
2023-05-19T01:39:44.195Z,8.60
2023-05-19T01:42:12.819Z,7.70
2023-05-19T01:44:39.683Z,9.32
2023-05-19T01:47:07.169Z,9.55
2023-05-19T01:49:33.832Z,10.65
2023-05-19T01:52:00.509Z,9.55
2023-05-19T01:54:27.166Z,11.30
2023-05-19T01:57:09.070Z,7.00
2023-05-19T02:00:08.421Z,6.95
2023-05-19T02:02:41.090Z,8.70
2023-05-19T02:05:18.341Z,8.85
2023-05-19T02:07:56.825Z,7.65
2023-05-19T02:10:28.024Z,8.52
2023-05-19T02:13:01.274Z,9.93
2023-05-19T02:18:00.365Z,9.07
2023-05-19T02:20:27.054Z,11.02
2023-05-19T02:22:53.755Z,9.82
2023-05-19T02:25:21.670Z,7.32
2023-05-19T02:27:49.192Z,9.52
2023-05-19T02:30:15.971Z,12.27
2023-05-19T02:32:42.650Z,9.60
2023-05-19T02:35:09.878Z,9.90
2023-05-19T02:37:36.566Z,10.50
2023-05-19T02:40:04.289Z,8.80
2023-05-19T02:42:31.423Z,11.60
2023-05-19T02:44:58.156Z,9.68
2023-05-19T02:47:24.821Z,8.57
2023-05-19T02:49:51.482Z,10.45
2023-05-19T02:52:18.179Z,9.60
2023-05-19T02:54:44.902Z,9.93
2023-05-19T02:57:11.693Z,13.35
2023-05-19T02:59:38.429Z,12.25
2023-05-19T03:02:05.296Z,10.48
2023-05-19T03:04:32.056Z,9.38
2023-05-19T03:06:58.757Z,10.93
2023-05-19T03:09:25.626Z,10.50
2023-05-19T03:11:52.325Z,8.82
2023-05-19T03:14:24.033Z,11.40
2023-05-19T03:16:51.116Z,13.52
2023-05-19T03:19:18.387Z,13.27
2023-05-19T03:21:45.139Z,9.88
2023-05-19T03:24:11.993Z,12.27
2023-05-19T03:26:38.739Z,12.18
2023-05-19T03:29:05.381Z,14.23
2023-05-19T03:31:32.080Z,12.82
2023-05-19T03:33:58.726Z,11.93
2023-05-19T03:36:26.331Z,12.45
2023-05-19T03:38:52.978Z,18.55
2023-05-19T03:41:19.606Z,12.90
2023-05-19T03:43:46.270Z,10.60
2023-05-19T03:46:12.927Z,12.70
2023-05-19T03:48:39.626Z,11.05
2023-05-19T03:51:06.304Z,9.25
2023-05-19T03:53:33.113Z,9.38
2023-05-19T03:56:00.700Z,10.52
2023-05-19T03:58:27.331Z,11.65
2023-05-19T04:00:53.989Z,11.23
2023-05-19T04:03:21.093Z,10.57
2023-05-19T04:05:48.056Z,11.52
2023-05-19T04:08:14.682Z,11.77
2023-05-19T04:10:41.384Z,9.40
2023-05-19T04:13:08.035Z,10.05
2023-05-19T04:15:34.839Z,11.23
2023-05-19T04:18:01.573Z,11.98
2023-05-19T04:20:28.275Z,12.35
2023-05-19T04:22:54.930Z,11.48
2023-05-19T04:25:21.606Z,9.38
2023-05-19T04:27:48.894Z,10.57
2023-05-19T04:30:22.248Z,13.52
2023-05-19T04:32:52.138Z,13.18
2023-05-19T04:35:19.443Z,12.00
2023-05-19T04:37:46.180Z,12.95
2023-05-19T04:40:13.460Z,11.45
2023-05-19T04:42:45.861Z,14.43
2023-05-19T04:45:14.204Z,13.30
2023-05-19T04:47:42.415Z,14.50
2023-05-19T04:50:11.182Z,12.40
2023-05-19T04:52:37.858Z,10.35
2023-05-19T04:55:04.852Z,13.57
2023-05-19T04:57:31.746Z,11.75
2023-05-19T05:00:00.378Z,13.90
2023-05-19T05:02:30.076Z,15.77
2023-05-19T05:04:56.844Z,18.60
2023-05-19T05:07:24.129Z,16.05
2023-05-19T05:09:51.087Z,12.07
2023-05-19T05:12:18.709Z,12.48
2023-05-19T05:14:45.884Z,12.00
2023-05-19T05:17:13.399Z,14.23
2023-05-19T05:19:40.810Z,11.18
2023-05-19T05:22:07.792Z,16.77
2023-05-19T05:24:34.728Z,14.68
2023-05-19T05:27:01.541Z,14.82
2023-05-19T05:29:28.156Z,11.35
2023-05-19T05:31:54.832Z,14.05
2023-05-19T05:34:21.536Z,13.20
2023-05-19T05:36:48.212Z,11.02
2023-05-19T05:39:14.876Z,12.93
2023-05-19T05:41:41.528Z,12.85
2023-05-19T05:44:08.244Z,13.45
2023-05-19T05:46:34.998Z,12.52
2023-05-19T05:49:02.137Z,11.02
2023-05-19T05:51:29.044Z,16.83
2023-05-19T05:53:56.721Z,10.48
2023-05-19T05:56:23.639Z,12.90
2023-05-19T05:58:50.722Z,13.88
2023-05-19T06:01:17.916Z,11.35
2023-05-19T06:03:45.110Z,15.43
2023-05-19T06:06:12.474Z,14.90
2023-05-19T06:08:39.181Z,10.50
2023-05-19T06:11:09.371Z,10.60
2023-05-19T06:13:37.018Z,14.95
2023-05-19T06:16:04.201Z,12.30
2023-05-19T06:18:30.876Z,11.98
2023-05-19T06:20:57.556Z,11.73
2023-05-19T06:23:25.293Z,10.77
2023-05-19T06:25:52.021Z,11.70
2023-05-19T06:28:18.688Z,10.63
2023-05-19T06:30:45.308Z,13.18
2023-05-19T06:33:12.082Z,11.30
2023-05-19T06:35:38.742Z,15.10
2023-05-19T06:38:05.415Z,13.38
2023-05-19T06:40:32.212Z,12.27
2023-05-19T06:42:59.103Z,13.00
2023-05-19T06:45:25.818Z,9.98
2023-05-19T06:47:52.595Z,9.55
2023-05-19T06:50:19.442Z,11.75
2023-05-19T06:52:47.185Z,11.38
2023-05-19T06:55:13.908Z,13.70
2023-05-19T06:57:40.608Z,13.13
2023-05-19T07:00:13.429Z,14.52
2023-05-19T07:02:41.987Z,10.70
2023-05-19T07:05:09.321Z,11.30
2023-05-19T07:07:36.065Z,14.40
2023-05-19T07:10:02.779Z,12.93
2023-05-19T07:12:29.446Z,15.57
2023-05-19T07:14:56.155Z,16.02
2023-05-19T07:17:22.925Z,13.43
2023-05-19T07:19:49.617Z,12.20
2023-05-19T07:22:16.305Z,12.38
2023-05-19T07:24:43.015Z,13.20
2023-05-19T07:27:10.346Z,17.10
2023-05-19T07:29:37.099Z,15.48
2023-05-19T07:32:04.093Z,13.88
2023-05-19T07:34:31.019Z,13.63
2023-05-19T07:36:57.772Z,13.40
2023-05-19T07:39:26.761Z,13.95
2023-05-19T07:41:55.751Z,11.88
2023-05-19T07:44:22.452Z,10.20
2023-05-19T07:46:49.168Z,10.32
2023-05-19T07:49:15.878Z,12.90
2023-05-19T07:51:42.530Z,10.93
2023-05-19T07:54:09.274Z,8.75
2023-05-19T07:56:37.141Z,15.80
2023-05-19T07:59:04.594Z,11.70
2023-05-19T08:01:32.426Z,10.10
2023-05-19T08:03:59.279Z,11.07
2023-05-19T08:06:26.087Z,12.35
2023-05-19T08:08:54.303Z,14.15
2023-05-19T08:11:21.650Z,13.32
2023-05-19T08:13:49.362Z,12.15
2023-05-19T08:16:16.449Z,10.52
2023-05-19T08:18:43.298Z,11.43
2023-05-19T08:21:10.016Z,13.48
2023-05-19T08:23:37.504Z,8.88
2023-05-19T08:26:04.542Z,13.30
2023-05-19T08:28:31.535Z,9.70
2023-05-19T08:30:58.291Z,8.75
2023-05-19T08:33:25.034Z,13.27
2023-05-19T08:35:51.768Z,11.32
2023-05-19T08:38:18.509Z,11.88
2023-05-19T08:40:48.023Z,11.05
2023-05-19T08:43:14.775Z,9.85
2023-05-19T08:45:44.784Z,8.73
2023-05-19T08:48:13.525Z,10.50
2023-05-19T08:50:44.908Z,11.25
2023-05-19T08:53:33.355Z,12.77
2023-05-19T08:56:24.249Z,12.30
2023-05-19T08:58:51.886Z,9.52
2023-05-19T09:01:20.457Z,7.95
2023-05-19T09:03:49.908Z,10.18
2023-05-19T09:06:17.147Z,10.15
2023-05-19T09:08:44.393Z,13.75
2023-05-19T09:11:11.342Z,13.10
2023-05-19T09:13:38.434Z,12.60
2023-05-19T09:16:05.448Z,11.70
2023-05-19T09:18:32.550Z,14.27
2023-05-19T09:21:03.027Z,10.75
2023-05-19T09:23:34.138Z,13.85
2023-05-19T09:26:07.595Z,12.18
2023-05-19T09:28:36.647Z,13.48
2023-05-19T09:31:10.349Z,13.40
2023-05-19T09:33:45.612Z,12.57
2023-05-19T09:36:13.788Z,10.60
2023-05-19T09:38:40.702Z,14.43
2023-05-19T09:41:08.592Z,13.15
2023-05-19T09:43:35.780Z,14.45
2023-05-19T09:46:12.913Z,14.25
2023-05-19T09:48:41.200Z,12.02
2023-05-19T09:51:10.375Z,11.50
2023-05-19T09:53:37.341Z,13.10
2023-05-19T09:56:04.281Z,11.48
2023-05-19T09:58:35.525Z,10.38
2023-05-19T10:01:03.810Z,11.10
2023-05-19T10:03:32.852Z,13.88
2023-05-19T10:06:01.477Z,11.50
2023-05-19T10:08:30.708Z,13.02
2023-05-19T10:10:58.369Z,12.95
2023-05-19T10:13:26.748Z,10.88
2023-05-19T10:15:58.687Z,12.15
2023-05-19T10:18:26.988Z,12.68
2023-05-19T10:20:54.383Z,11.10
2023-05-19T10:23:21.185Z,9.18
2023-05-19T10:25:49.369Z,9.18
2023-05-19T10:28:18.589Z,9.93
2023-05-19T10:30:49.873Z,10.77
2023-05-19T10:33:18.829Z,11.85
2023-05-19T10:36:23.328Z,10.32
2023-05-19T10:39:06.686Z,11.82
2023-05-19T10:41:39.362Z,13.90
2023-05-19T10:44:29.679Z,10.68
2023-05-19T10:46:57.125Z,11.43
2023-05-19T10:49:24.178Z,10.77
2023-05-19T10:51:52.483Z,11.05
2023-05-19T10:54:40.891Z,7.75
2023-05-19T10:57:08.580Z,10.02
2023-05-19T10:59:40.001Z,9.90
2023-05-19T11:02:08.826Z,10.52
2023-05-19T11:04:51.811Z,9.38
2023-05-19T11:09:53.162Z,8.80
2023-05-19T11:12:25.342Z,8.63
2023-05-19T11:14:55.938Z,11.73
2023-05-19T11:17:25.740Z,8.95
2023-05-19T11:19:57.109Z,10.02
2023-05-19T11:22:26.189Z,10.13
2023-05-19T11:24:55.326Z,10.73
2023-05-19T11:27:31.847Z,9.57
2023-05-19T11:30:01.854Z,13.13
2023-05-19T11:32:31.209Z,9.52
2023-05-19T11:34:58.261Z,11.20
2023-05-19T11:37:25.348Z,9.65
2023-05-19T11:39:53.091Z,11.18
2023-05-19T11:42:20.229Z,10.02
2023-05-19T11:44:47.362Z,9.68
2023-05-19T11:47:14.871Z,11.00
2023-05-19T11:49:46.084Z,9.85
2023-05-19T11:52:13.208Z,9.57
2023-05-19T11:54:41.971Z,9.75
2023-05-19T11:57:14.067Z,10.25
2023-05-19T11:59:45.490Z,9.38
2023-05-19T12:02:28.169Z,9.00
2023-05-19T12:04:55.300Z,10.13
2023-05-19T12:07:26.117Z,9.73
2023-05-19T12:09:53.660Z,9.88
2023-05-19T12:12:21.449Z,8.65
2023-05-19T12:14:51.242Z,9.20
2023-05-19T12:17:25.610Z,8.95
2023-05-19T12:19:52.683Z,8.18
2023-05-19T12:22:19.724Z,10.38
2023-05-19T12:24:47.334Z,9.80
2023-05-19T12:27:19.639Z,9.18
2023-05-19T12:30:05.103Z,8.15
2023-05-19T12:32:35.397Z,9.90
2023-05-19T12:35:06.210Z,9.90
2023-05-19T12:37:34.935Z,8.70
2023-05-19T12:40:03.735Z,9.23
2023-05-19T12:42:31.529Z,8.77
2023-05-19T12:45:01.519Z,9.90
2023-05-19T12:47:33.087Z,9.10
2023-05-19T12:49:59.745Z,7.88
2023-05-19T12:52:29.052Z,8.13
2023-05-19T12:55:07.279Z,9.25
2023-05-19T12:57:58.062Z,9.15
2023-05-19T13:00:28.359Z,9.18
2023-05-19T13:03:22.382Z,7.95
2023-05-19T13:05:51.089Z,9.10
2023-05-19T13:08:20.387Z,7.68
2023-05-19T13:10:47.822Z,8.13
2023-05-19T13:13:14.830Z,7.68
2023-05-19T13:15:44.960Z,7.95
2023-05-19T13:18:13.654Z,10.48
2023-05-19T13:20:42.101Z,8.55
2023-05-19T13:23:13.941Z,8.10
2023-05-19T13:25:41.608Z,11.20
2023-05-19T13:28:08.737Z,8.38
2023-05-19T13:30:38.118Z,9.00
2023-05-19T13:33:05.561Z,7.05
2023-05-19T13:35:37.958Z,7.88
2023-05-19T13:38:06.871Z,8.07
2023-05-19T13:40:34.974Z,7.20
2023-05-19T13:43:03.120Z,9.20
2023-05-19T13:45:30.203Z,7.50
2023-05-19T13:47:57.113Z,9.30
2023-05-19T13:50:23.916Z,7.80
2023-05-19T13:52:50.646Z,9.15
2023-05-19T13:55:17.519Z,7.63
2023-05-19T13:57:44.931Z,8.90
2023-05-19T14:00:11.938Z,9.57
2023-05-19T14:02:39.320Z,8.63
2023-05-19T14:05:07.392Z,8.75
2023-05-19T14:07:37.132Z,10.27
2023-05-19T14:10:06.003Z,8.23
2023-05-19T14:12:43.156Z,8.32
2023-05-19T14:15:14.461Z,10.43
2023-05-19T14:17:41.427Z,7.85
2023-05-19T14:20:08.692Z,10.70
2023-05-19T14:22:35.375Z,8.02
2023-05-19T14:25:02.492Z,7.55
2023-05-19T14:27:29.153Z,7.93
2023-05-19T14:29:55.881Z,7.90
2023-05-19T14:32:22.611Z,9.60
2023-05-19T14:34:52.892Z,9.35
2023-05-19T14:37:20.442Z,8.90
2023-05-19T14:39:47.159Z,8.73
2023-05-19T14:42:13.889Z,9.90
2023-05-19T14:44:40.608Z,10.23
2023-05-19T14:47:07.498Z,8.07
2023-05-19T14:49:34.467Z,8.95
2023-05-19T14:52:01.349Z,10.20
2023-05-19T14:54:28.206Z,9.10
2023-05-19T14:56:54.886Z,9.27
2023-05-19T14:59:21.834Z,21.65
2023-05-19T15:01:48.651Z,7.55
2023-05-19T15:04:15.674Z,11.38
2023-05-19T15:06:42.498Z,7.72
2023-05-19T15:09:09.523Z,7.45
2023-05-19T15:11:36.182Z,7.65
2023-05-19T15:14:02.833Z,8.68
2023-05-19T15:16:29.623Z,9.27
2023-05-19T15:18:56.837Z,9.80
2023-05-19T15:21:23.561Z,8.57
2023-05-19T15:23:50.450Z,9.73
2023-05-19T15:26:17.198Z,7.63
2023-05-19T15:28:43.845Z,7.60
2023-05-19T15:31:10.603Z,7.75
2023-05-19T15:33:37.368Z,8.93
2023-05-19T15:36:04.259Z,8.35
2023-05-19T15:38:35.201Z,7.43
2023-05-19T15:41:06.849Z,8.32
2023-05-19T15:43:33.488Z,8.48
2023-05-19T15:46:00.228Z,8.68
2023-05-19T15:48:28.996Z,7.43
2023-05-19T15:50:58.223Z,8.77
2023-05-19T15:53:25.619Z,7.53
2023-05-19T15:55:52.371Z,7.53
2023-05-19T15:58:19.016Z,9.35
2023-05-19T16:00:46.066Z,6.93
2023-05-19T16:03:12.891Z,8.38
2023-05-19T16:05:39.612Z,8.35
2023-05-19T16:08:08.502Z,8.50
2023-05-19T16:10:35.685Z,9.00
2023-05-19T16:13:02.433Z,7.32
2023-05-19T16:15:29.087Z,8.25
2023-05-19T16:17:55.948Z,7.55
2023-05-19T16:20:26.844Z,7.35
2023-05-19T16:22:54.288Z,7.18
2023-05-19T16:25:21.065Z,9.35
2023-05-19T16:27:47.805Z,8.70
2023-05-19T16:30:14.782Z,8.30
2023-05-19T16:32:41.522Z,5.72
2023-05-19T16:35:09.087Z,7.40
2023-05-19T16:37:35.752Z,9.65
2023-05-19T16:40:02.669Z,7.93
2023-05-19T16:42:29.310Z,7.60
2023-05-19T16:44:55.994Z,6.53
2023-05-19T16:47:22.675Z,8.60
2023-05-19T16:49:49.382Z,7.05
2023-05-19T16:52:16.076Z,9.07
2023-05-19T16:54:42.795Z,9.25
2023-05-19T16:57:09.933Z,7.68
2023-05-19T16:59:36.672Z,8.00
2023-05-19T17:02:03.544Z,7.20
2023-05-19T17:04:30.934Z,7.72
2023-05-19T17:06:57.860Z,6.78
2023-05-19T17:09:26.328Z,8.77
2023-05-19T17:11:53.784Z,7.53
2023-05-19T17:14:21.359Z,7.65
2023-05-19T17:16:48.754Z,7.35
2023-05-19T17:19:16.269Z,6.38
2023-05-19T17:21:43.167Z,9.20
2023-05-19T17:24:09.860Z,8.13
2023-05-19T17:26:36.602Z,9.73
2023-05-19T17:29:03.229Z,6.72
2023-05-19T17:31:29.938Z,8.20
2023-05-19T17:33:56.607Z,9.52
2023-05-19T17:36:23.265Z,8.50
2023-05-19T17:38:49.945Z,8.02
2023-05-19T17:41:16.793Z,7.68
2023-05-19T17:43:43.868Z,6.57
2023-05-19T17:46:11.756Z,8.60
2023-05-19T17:48:39.710Z,8.57
2023-05-19T17:51:09.445Z,7.07
2023-05-19T17:53:36.713Z,8.93
2023-05-19T17:56:06.600Z,7.45
2023-05-19T17:58:33.641Z,8.65
2023-05-19T18:01:00.574Z,9.27
2023-05-19T18:03:27.519Z,7.90
2023-05-19T18:05:54.489Z,9.60
2023-05-19T18:08:21.565Z,9.90
2023-05-19T18:10:51.302Z,10.32
2023-05-19T18:13:18.040Z,8.68
2023-05-19T18:15:44.678Z,9.13
2023-05-19T18:18:11.769Z,8.88
2023-05-19T18:20:39.435Z,7.30
2023-05-19T18:23:06.170Z,8.98
2023-05-19T18:25:32.851Z,9.43
2023-05-19T18:27:59.500Z,9.60
2023-05-19T18:30:26.200Z,8.25
2023-05-19T18:32:52.971Z,7.72
2023-05-19T18:35:21.178Z,8.38
2023-05-19T18:37:47.883Z,6.95
2023-05-19T18:40:14.564Z,8.85
2023-05-19T18:42:41.195Z,12.52
2023-05-19T18:45:08.269Z,11.27
2023-05-19T18:47:35.007Z,9.43
2023-05-19T18:50:01.710Z,8.00
2023-05-19T18:52:29.128Z,7.35
2023-05-19T18:54:55.939Z,8.57
2023-05-19T18:57:22.673Z,8.27
2023-05-19T18:59:49.345Z,7.60
2023-05-19T19:02:16.010Z,7.28
2023-05-19T19:04:42.762Z,7.00
2023-05-19T19:07:09.459Z,7.97
2023-05-19T19:09:36.142Z,7.70
2023-05-19T19:12:02.894Z,9.63
2023-05-19T19:14:29.620Z,9.88
2023-05-19T19:16:56.566Z,8.85
2023-05-19T19:19:23.955Z,10.35
2023-05-19T19:21:50.760Z,9.20
2023-05-19T19:24:17.423Z,6.80
2023-05-19T19:26:44.158Z,9.07
2023-05-19T19:29:10.921Z,8.88
2023-05-19T19:31:37.601Z,9.57
2023-05-19T19:34:09.122Z,7.70
2023-05-19T19:36:36.314Z,7.38
2023-05-19T19:39:03.052Z,11.40
2023-05-19T19:41:30.184Z,7.82
2023-05-19T19:43:56.848Z,9.68
2023-05-19T19:46:23.548Z,8.05
2023-05-19T19:48:50.233Z,9.38
2023-05-19T19:51:16.942Z,9.05
2023-05-19T19:53:43.719Z,7.57
2023-05-19T19:56:10.411Z,7.03
2023-05-19T19:58:37.153Z,10.10
2023-05-19T20:01:04.384Z,7.82
2023-05-19T20:03:31.888Z,8.77
2023-05-19T20:05:58.929Z,8.85
2023-05-19T20:08:26.529Z,8.60
2023-05-19T20:10:53.329Z,10.10
2023-05-19T20:13:20.262Z,8.95
2023-05-19T20:15:47.143Z,9.13
2023-05-19T20:18:13.900Z,10.00
2023-05-19T20:20:41.000Z,9.10
2023-05-19T20:23:08.144Z,15.68
2023-05-19T20:25:50.100Z,8.35
2023-05-19T20:28:25.847Z,8.57
2023-05-19T20:30:52.531Z,8.85
2023-05-19T20:33:19.206Z,8.55
2023-05-19T20:35:45.950Z,8.25
2023-05-19T20:38:12.625Z,8.40
2023-05-19T20:40:39.343Z,10.52
2023-05-19T20:43:06.118Z,10.30
2023-05-19T20:45:33.085Z,8.27
2023-05-19T20:48:00.778Z,9.05
2023-05-19T20:50:27.493Z,8.88
2023-05-19T20:52:54.342Z,7.80
2023-05-19T20:55:21.105Z,9.10
2023-05-19T20:57:47.777Z,9.38
2023-05-19T21:00:14.698Z,9.88
2023-05-19T21:02:41.427Z,7.72
2023-05-19T21:05:08.459Z,9.85
2023-05-19T21:07:35.270Z,8.25
2023-05-19T21:10:02.117Z,8.65
2023-05-19T21:12:34.018Z,10.40
2023-05-19T21:15:01.665Z,9.88
2023-05-19T21:17:28.448Z,10.20
2023-05-19T21:19:58.101Z,9.30
2023-05-19T21:22:26.482Z,8.75
2023-05-19T21:24:53.919Z,8.98
2023-05-19T21:27:20.762Z,9.40
2023-05-19T21:29:47.659Z,10.73
2023-05-19T21:32:14.291Z,7.93
2023-05-19T21:34:41.009Z,14.50
2023-05-19T21:37:07.734Z,11.52
2023-05-19T21:39:34.932Z,9.00
2023-05-19T21:42:01.586Z,8.63
2023-05-19T21:44:28.348Z,11.05
2023-05-19T21:46:55.164Z,8.50
2023-05-19T21:49:21.836Z,9.75
2023-05-19T21:51:48.486Z,10.18
2023-05-19T21:54:15.163Z,8.35
2023-05-19T21:56:41.835Z,9.38
2023-05-19T21:59:09.251Z,9.57
2023-05-19T22:01:35.955Z,8.40
2023-05-19T22:04:02.715Z,9.70
2023-05-19T22:06:29.826Z,8.75
2023-05-19T22:08:58.152Z,9.10
2023-05-19T22:11:24.807Z,11.23
2023-05-19T22:13:51.602Z,10.98
2023-05-19T22:16:18.306Z,10.45
2023-05-19T22:18:44.990Z,10.10
2023-05-19T22:21:11.808Z,9.82
2023-05-19T22:23:38.440Z,10.25
2023-05-19T22:26:05.262Z,11.32
2023-05-19T22:28:31.922Z,9.10
2023-05-19T22:30:58.591Z,8.85
2023-05-19T22:33:25.278Z,8.18
2023-05-19T22:35:51.984Z,9.30
2023-05-19T22:38:18.689Z,9.13
2023-05-19T22:40:45.564Z,8.68
2023-05-19T22:43:12.231Z,9.93
2023-05-19T22:45:39.214Z,9.45
2023-05-19T22:48:06.644Z,11.20
2023-05-19T22:50:33.408Z,9.90
2023-05-19T22:53:00.225Z,10.90
2023-05-19T22:55:26.969Z,8.95
2023-05-19T22:57:53.673Z,8.02
2023-05-19T23:00:21.075Z,8.48
2023-05-19T23:02:47.834Z,8.40
2023-05-19T23:05:14.611Z,10.80
2023-05-19T23:07:41.386Z,11.75
2023-05-19T23:10:08.595Z,9.65
2023-05-19T23:12:35.429Z,10.18
2023-05-19T23:15:02.761Z,9.95
2023-05-19T23:17:29.421Z,7.57
2023-05-19T23:19:56.236Z,10.07
2023-05-19T23:22:23.028Z,9.48
2023-05-19T23:24:49.720Z,9.25
2023-05-19T23:27:16.374Z,14.10
2023-05-19T23:29:47.290Z,12.25
2023-05-19T23:32:13.922Z,9.15
2023-05-19T23:34:40.666Z,8.13
2023-05-19T23:37:07.718Z,9.63
2023-05-19T23:39:34.472Z,9.27
2023-05-19T23:42:01.788Z,11.52
2023-05-19T23:44:28.426Z,10.23
2023-05-19T23:46:55.103Z,9.90
2023-05-19T23:49:22.081Z,10.05
2023-05-19T23:51:48.748Z,11.40
2023-05-19T23:54:15.450Z,7.53
2023-05-19T23:56:42.163Z,9.23
2023-05-19T23:59:08.840Z,10.35
